sensor_id;sensor_type;location;lat;lon;timestamp;P1;durP1;ratioP1;P2;durP2;ratioP2
34296;SDS011;20564;42.902;25.336;2024-03-02T00:01:34;1.00;;;0.57;;
34296;SDS011;20564;42.902;25.336;2024-03-02T00:04:02;2.47;;;0.93;;
34296;SDS011;20564;42.902;25.336;2024-03-02T00:06:30;0.52;;;0.43;;
34296;SDS011;20564;42.902;25.336;2024-03-02T00:08:58;2.97;;;0.85;;
34296;SDS011;20564;42.902;25.336;2024-03-02T00:11:25;0.85;;;0.47;;
34296;SDS011;20564;42.902;25.336;2024-03-02T00:13:54;2.28;;;0.75;;
34296;SDS011;20564;42.902;25.336;2024-03-02T00:16:21;0.83;;;0.73;;
34296;SDS011;20564;42.902;25.336;2024-03-02T00:18:48;1.10;;;0.68;;
34296;SDS011;20564;42.902;25.336;2024-03-02T00:21:15;0.80;;;0.70;;
34296;SDS011;20564;42.902;25.336;2024-03-02T00:23:47;0.57;;;0.57;;
34296;SDS011;20564;42.902;25.336;2024-03-02T00:26:18;0.60;;;0.47;;
34296;SDS011;20564;42.902;25.336;2024-03-02T00:28:45;0.10;;;0.10;;
34296;SDS011;20564;42.902;25.336;2024-03-02T00:31:12;0.52;;;0.43;;
34296;SDS011;20564;42.902;25.336;2024-03-02T00:36:09;2.08;;;1.30;;
34296;SDS011;20564;42.902;25.336;2024-03-02T00:38:48;0.32;;;0.32;;
34296;SDS011;20564;42.902;25.336;2024-03-02T00:41:27;1.38;;;0.68;;
34296;SDS011;20564;42.902;25.336;2024-03-02T00:43:59;1.55;;;1.23;;
34296;SDS011;20564;42.902;25.336;2024-03-02T00:46:27;0.60;;;0.60;;
34296;SDS011;20564;42.902;25.336;2024-03-02T00:48:58;0.45;;;0.45;;
34296;SDS011;20564;42.902;25.336;2024-03-02T00:51:27;0.20;;;0.20;;
34296;SDS011;20564;42.902;25.336;2024-03-02T00:53:58;0.10;;;0.10;;
34296;SDS011;20564;42.902;25.336;2024-03-02T00:56:26;0.52;;;0.47;;
34296;SDS011;20564;42.902;25.336;2024-03-02T00:58:53;1.75;;;0.82;;
34296;SDS011;20564;42.902;25.336;2024-03-02T01:01:20;0.45;;;0.40;;
34296;SDS011;20564;42.902;25.336;2024-03-02T01:03:48;1.08;;;0.63;;
34296;SDS011;20564;42.902;25.336;2024-03-02T01:06:18;0.93;;;0.47;;
34296;SDS011;20564;42.902;25.336;2024-03-02T01:08:45;1.92;;;1.23;;
34296;SDS011;20564;42.902;25.336;2024-03-02T01:11:14;0.52;;;0.35;;
34296;SDS011;20564;42.902;25.336;2024-03-02T01:13:41;1.58;;;1.00;;
34296;SDS011;20564;42.902;25.336;2024-03-02T01:16:08;0.98;;;0.65;;
34296;SDS011;20564;42.902;25.336;2024-03-02T01:18:35;0.90;;;0.50;;
34296;SDS011;20564;42.902;25.336;2024-03-02T01:21:02;4.07;;;1.90;;
34296;SDS011;20564;42.902;25.336;2024-03-02T01:23:29;0.57;;;0.45;;
34296;SDS011;20564;42.902;25.336;2024-03-02T01:25:56;0.50;;;0.50;;
34296;SDS011;20564;42.902;25.336;2024-03-02T01:28:23;3.93;;;1.40;;
34296;SDS011;20564;42.902;25.336;2024-03-02T01:30:50;0.50;;;0.47;;
34296;SDS011;20564;42.902;25.336;2024-03-02T01:33:17;1.08;;;0.35;;
34296;SDS011;20564;42.902;25.336;2024-03-02T01:35:45;5.78;;;1.50;;
34296;SDS011;20564;42.902;25.336;2024-03-02T01:38:12;1.40;;;1.00;;
34296;SDS011;20564;42.902;25.336;2024-03-02T01:40:39;0.85;;;0.73;;
34296;SDS011;20564;42.902;25.336;2024-03-02T01:43:06;0.40;;;0.30;;
34296;SDS011;20564;42.902;25.336;2024-03-02T01:45:34;0.65;;;0.55;;
34296;SDS011;20564;42.902;25.336;2024-03-02T01:48:03;0.93;;;0.77;;
34296;SDS011;20564;42.902;25.336;2024-03-02T01:50:32;0.77;;;0.75;;
34296;SDS011;20564;42.902;25.336;2024-03-02T01:53:00;0.22;;;0.22;;
34296;SDS011;20564;42.902;25.336;2024-03-02T01:55:31;2.13;;;0.77;;
34296;SDS011;20564;42.902;25.336;2024-03-02T01:57:59;0.45;;;0.35;;
34296;SDS011;20564;42.902;25.336;2024-03-02T02:00:27;0.73;;;0.55;;
34296;SDS011;20564;42.902;25.336;2024-03-02T02:02:54;0.65;;;0.52;;
34296;SDS011;20564;42.902;25.336;2024-03-02T02:05:21;0.75;;;0.52;;
34296;SDS011;20564;42.902;25.336;2024-03-02T02:07:57;1.05;;;0.75;;
34296;SDS011;20564;42.902;25.336;2024-03-02T02:10:25;1.08;;;0.85;;
34296;SDS011;20564;42.902;25.336;2024-03-02T02:12:52;3.22;;;1.58;;
34296;SDS011;20564;42.902;25.336;2024-03-02T02:15:26;0.57;;;0.40;;
34296;SDS011;20564;42.902;25.336;2024-03-02T02:17:57;1.33;;;0.88;;
34296;SDS011;20564;42.902;25.336;2024-03-02T02:20:29;1.92;;;0.68;;
34296;SDS011;20564;42.902;25.336;2024-03-02T02:25:27;2.08;;;1.40;;
34296;SDS011;20564;42.902;25.336;2024-03-02T02:27:56;1.75;;;1.00;;
34296;SDS011;20564;42.902;25.336;2024-03-02T02:30:26;0.90;;;0.65;;
34296;SDS011;20564;42.902;25.336;2024-03-02T02:32:55;0.50;;;0.50;;
34296;SDS011;20564;42.902;25.336;2024-03-02T02:35:22;1.35;;;1.00;;
34296;SDS011;20564;42.902;25.336;2024-03-02T02:37:51;0.85;;;0.52;;
34296;SDS011;20564;42.902;25.336;2024-03-02T02:40:19;0.25;;;0.25;;
34296;SDS011;20564;42.902;25.336;2024-03-02T02:42:46;1.20;;;0.57;;
34296;SDS011;20564;42.902;25.336;2024-03-02T02:45:14;1.05;;;0.55;;
34296;SDS011;20564;42.902;25.336;2024-03-02T02:47:41;0.75;;;0.43;;
34296;SDS011;20564;42.902;25.336;2024-03-02T02:55:07;2.80;;;1.25;;
34296;SDS011;20564;42.902;25.336;2024-03-02T02:57:36;0.35;;;0.30;;
34296;SDS011;20564;42.902;25.336;2024-03-02T03:00:06;0.38;;;0.38;;
34296;SDS011;20564;42.902;25.336;2024-03-02T03:02:43;0.93;;;0.35;;
34296;SDS011;20564;42.902;25.336;2024-03-02T03:05:14;0.28;;;0.28;;
34296;SDS011;20564;42.902;25.336;2024-03-02T03:07:41;0.98;;;0.90;;
34296;SDS011;20564;42.902;25.336;2024-03-02T03:10:12;0.10;;;0.10;;
34296;SDS011;20564;42.902;25.336;2024-03-02T03:12:41;0.28;;;0.25;;
34296;SDS011;20564;42.902;25.336;2024-03-02T03:15:10;3.40;;;1.40;;
34296;SDS011;20564;42.902;25.336;2024-03-02T03:17:40;1.30;;;0.68;;
34296;SDS011;20564;42.902;25.336;2024-03-02T03:20:08;0.45;;;0.45;;
34296;SDS011;20564;42.902;25.336;2024-03-02T03:22:39;6.28;;;1.83;;
34296;SDS011;20564;42.902;25.336;2024-03-02T03:25:06;0.40;;;0.32;;
34296;SDS011;20564;42.902;25.336;2024-03-02T03:27:35;0.82;;;0.82;;
34296;SDS011;20564;42.902;25.336;2024-03-02T03:30:03;3.33;;;1.88;;
34296;SDS011;20564;42.902;25.336;2024-03-02T03:32:30;0.80;;;0.65;;
34296;SDS011;20564;42.902;25.336;2024-03-02T03:34:57;0.98;;;0.65;;
34296;SDS011;20564;42.902;25.336;2024-03-02T03:37:24;0.45;;;0.32;;
34296;SDS011;20564;42.902;25.336;2024-03-02T03:39:53;0.70;;;0.47;;
34296;SDS011;20564;42.902;25.336;2024-03-02T03:42:20;0.75;;;0.30;;
34296;SDS011;20564;42.902;25.336;2024-03-02T03:44:47;0.93;;;0.67;;
34296;SDS011;20564;42.902;25.336;2024-03-02T03:47:14;3.10;;;1.37;;
34296;SDS011;20564;42.902;25.336;2024-03-02T03:49:41;1.40;;;0.93;;
34296;SDS011;20564;42.902;25.336;2024-03-02T03:52:09;1.05;;;0.75;;
34296;SDS011;20564;42.902;25.336;2024-03-02T03:54:36;2.85;;;1.13;;
34296;SDS011;20564;42.902;25.336;2024-03-02T03:57:04;1.85;;;1.17;;
34296;SDS011;20564;42.902;25.336;2024-03-02T03:59:32;0.28;;;0.28;;
34296;SDS011;20564;42.902;25.336;2024-03-02T04:01:59;1.90;;;1.25;;
34296;SDS011;20564;42.902;25.336;2024-03-02T04:04:26;1.03;;;0.63;;
34296;SDS011;20564;42.902;25.336;2024-03-02T04:06:53;0.52;;;0.52;;
34296;SDS011;20564;42.902;25.336;2024-03-02T04:09:21;0.77;;;0.63;;
34296;SDS011;20564;42.902;25.336;2024-03-02T04:11:48;0.00;;;0.00;;
34296;SDS011;20564;42.902;25.336;2024-03-02T04:14:15;1.02;;;0.65;;
34296;SDS011;20564;42.902;25.336;2024-03-02T04:16:42;0.20;;;0.20;;
34296;SDS011;20564;42.902;25.336;2024-03-02T04:19:09;0.75;;;0.75;;
34296;SDS011;20564;42.902;25.336;2024-03-02T04:21:36;0.22;;;0.22;;
34296;SDS011;20564;42.902;25.336;2024-03-02T04:24:04;0.73;;;0.52;;
34296;SDS011;20564;42.902;25.336;2024-03-02T04:26:31;0.32;;;0.32;;
34296;SDS011;20564;42.902;25.336;2024-03-02T04:28:58;0.45;;;0.25;;
34296;SDS011;20564;42.902;25.336;2024-03-02T04:31:25;1.98;;;1.58;;
34296;SDS011;20564;42.902;25.336;2024-03-02T04:33:52;1.80;;;1.15;;
34296;SDS011;20564;42.902;25.336;2024-03-02T04:36:20;0.65;;;0.63;;
34296;SDS011;20564;42.902;25.336;2024-03-02T04:38:50;1.60;;;0.80;;
34296;SDS011;20564;42.902;25.336;2024-03-02T04:41:17;1.10;;;1.02;;
34296;SDS011;20564;42.902;25.336;2024-03-02T04:43:44;2.75;;;1.33;;
34296;SDS011;20564;42.902;25.336;2024-03-02T04:46:11;0.30;;;0.30;;
34296;SDS011;20564;42.902;25.336;2024-03-02T04:48:38;0.20;;;0.20;;
34296;SDS011;20564;42.902;25.336;2024-03-02T04:51:05;3.00;;;1.60;;
34296;SDS011;20564;42.902;25.336;2024-03-02T04:53:32;0.35;;;0.20;;
34296;SDS011;20564;42.902;25.336;2024-03-02T04:55:59;0.95;;;0.75;;
34296;SDS011;20564;42.902;25.336;2024-03-02T04:58:44;1.45;;;1.08;;
34296;SDS011;20564;42.902;25.336;2024-03-02T05:01:11;0.77;;;0.55;;
34296;SDS011;20564;42.902;25.336;2024-03-02T05:03:38;1.20;;;0.40;;
34296;SDS011;20564;42.902;25.336;2024-03-02T05:06:06;1.00;;;0.77;;
34296;SDS011;20564;42.902;25.336;2024-03-02T05:08:33;18.73;;;1.88;;
34296;SDS011;20564;42.902;25.336;2024-03-02T05:11:00;3.22;;;1.40;;
34296;SDS011;20564;42.902;25.336;2024-03-02T05:13:47;1.40;;;0.68;;
34296;SDS011;20564;42.902;25.336;2024-03-02T05:16:13;2.40;;;1.65;;
34296;SDS011;20564;42.902;25.336;2024-03-02T05:18:40;1.60;;;1.02;;
34296;SDS011;20564;42.902;25.336;2024-03-02T05:21:08;1.63;;;1.02;;
34296;SDS011;20564;42.902;25.336;2024-03-02T05:23:35;0.93;;;0.63;;
34296;SDS011;20564;42.902;25.336;2024-03-02T05:26:02;2.63;;;1.20;;
34296;SDS011;20564;42.902;25.336;2024-03-02T05:28:29;1.55;;;1.33;;
34296;SDS011;20564;42.902;25.336;2024-03-02T05:31:02;1.50;;;1.10;;
34296;SDS011;20564;42.902;25.336;2024-03-02T05:33:33;0.68;;;0.68;;
34296;SDS011;20564;42.902;25.336;2024-03-02T05:36:06;4.97;;;1.25;;
34296;SDS011;20564;42.902;25.336;2024-03-02T05:38:36;3.20;;;0.95;;
34296;SDS011;20564;42.902;25.336;2024-03-02T05:41:03;0.63;;;0.45;;
34296;SDS011;20564;42.902;25.336;2024-03-02T05:43:31;0.40;;;0.40;;
34296;SDS011;20564;42.902;25.336;2024-03-02T05:45:59;3.22;;;1.75;;
34296;SDS011;20564;42.902;25.336;2024-03-02T05:48:26;1.92;;;0.95;;
34296;SDS011;20564;42.902;25.336;2024-03-02T05:50:53;6.13;;;1.13;;
34296;SDS011;20564;42.902;25.336;2024-03-02T05:53:19;0.55;;;0.38;;
34296;SDS011;20564;42.902;25.336;2024-03-02T05:55:46;14.48;;;1.85;;
34296;SDS011;20564;42.902;25.336;2024-03-02T05:58:19;0.98;;;0.65;;
34296;SDS011;20564;42.902;25.336;2024-03-02T06:01:05;7.72;;;1.65;;
34296;SDS011;20564;42.902;25.336;2024-03-02T06:03:32;0.43;;;0.35;;
34296;SDS011;20564;42.902;25.336;2024-03-02T06:05:59;0.98;;;0.60;;
34296;SDS011;20564;42.902;25.336;2024-03-02T06:08:27;1.38;;;0.88;;
34296;SDS011;20564;42.902;25.336;2024-03-02T06:10:53;3.25;;;0.88;;
34296;SDS011;20564;42.902;25.336;2024-03-02T06:13:20;2.03;;;1.53;;
34296;SDS011;20564;42.902;25.336;2024-03-02T06:15:47;3.20;;;2.03;;
34296;SDS011;20564;42.902;25.336;2024-03-02T06:18:15;0.85;;;0.85;;
34296;SDS011;20564;42.902;25.336;2024-03-02T06:20:43;0.80;;;0.57;;
34296;SDS011;20564;42.902;25.336;2024-03-02T06:25:37;1.45;;;0.65;;
34296;SDS011;20564;42.902;25.336;2024-03-02T06:28:04;1.65;;;0.60;;
34296;SDS011;20564;42.902;25.336;2024-03-02T06:30:31;2.58;;;1.25;;
34296;SDS011;20564;42.902;25.336;2024-03-02T06:32:58;1.02;;;0.90;;
34296;SDS011;20564;42.902;25.336;2024-03-02T06:35:25;1.67;;;1.23;;
34296;SDS011;20564;42.902;25.336;2024-03-02T06:37:51;3.95;;;2.22;;
34296;SDS011;20564;42.902;25.336;2024-03-02T06:40:18;2.03;;;1.58;;
34296;SDS011;20564;42.902;25.336;2024-03-02T06:42:45;1.67;;;1.58;;
34296;SDS011;20564;42.902;25.336;2024-03-02T06:45:12;3.25;;;1.70;;
34296;SDS011;20564;42.902;25.336;2024-03-02T06:47:39;19.83;;;3.27;;
34296;SDS011;20564;42.902;25.336;2024-03-02T06:50:06;2.70;;;1.90;;
34296;SDS011;20564;42.902;25.336;2024-03-02T06:52:34;1.75;;;1.38;;
34296;SDS011;20564;42.902;25.336;2024-03-02T06:55:02;6.90;;;2.55;;
34296;SDS011;20564;42.902;25.336;2024-03-02T06:57:30;3.42;;;2.65;;
34296;SDS011;20564;42.902;25.336;2024-03-02T06:59:57;3.33;;;2.50;;
34296;SDS011;20564;42.902;25.336;2024-03-02T07:02:25;4.57;;;1.98;;
34296;SDS011;20564;42.902;25.336;2024-03-02T07:04:53;4.57;;;2.55;;
34296;SDS011;20564;42.902;25.336;2024-03-02T07:19:09;3.30;;;2.20;;
34296;SDS011;20564;42.902;25.336;2024-03-02T07:21:36;3.60;;;2.00;;
34296;SDS011;20564;42.902;25.336;2024-03-02T07:24:04;5.45;;;3.15;;
34296;SDS011;20564;42.902;25.336;2024-03-02T07:26:32;2.70;;;1.80;;
34296;SDS011;20564;42.902;25.336;2024-03-02T07:29:02;5.18;;;2.03;;
34296;SDS011;20564;42.902;25.336;2024-03-02T07:31:29;3.63;;;2.30;;
34296;SDS011;20564;42.902;25.336;2024-03-02T07:33:56;4.00;;;2.35;;
34296;SDS011;20564;42.902;25.336;2024-03-02T07:36:23;3.97;;;2.00;;
34296;SDS011;20564;42.902;25.336;2024-03-02T07:38:50;8.47;;;3.07;;
34296;SDS011;20564;42.902;25.336;2024-03-02T07:41:17;3.22;;;1.42;;
34296;SDS011;20564;42.902;25.336;2024-03-02T07:43:44;4.97;;;3.72;;
34296;SDS011;20564;42.902;25.336;2024-03-02T07:46:11;6.55;;;4.10;;
34296;SDS011;20564;42.902;25.336;2024-03-02T07:48:38;3.05;;;2.45;;
34296;SDS011;20564;42.902;25.336;2024-03-02T07:51:05;2.97;;;2.28;;
34296;SDS011;20564;42.902;25.336;2024-03-02T07:53:32;5.25;;;1.45;;
34296;SDS011;20564;42.902;25.336;2024-03-02T07:55:59;2.08;;;1.35;;
34296;SDS011;20564;42.902;25.336;2024-03-02T07:58:29;7.05;;;2.08;;
34296;SDS011;20564;42.902;25.336;2024-03-02T08:00:57;5.43;;;2.75;;
34296;SDS011;20564;42.902;25.336;2024-03-02T08:03:24;4.68;;;3.20;;
34296;SDS011;20564;42.902;25.336;2024-03-02T08:05:51;4.22;;;1.95;;
34296;SDS011;20564;42.902;25.336;2024-03-02T08:08:19;4.25;;;2.72;;
34296;SDS011;20564;42.902;25.336;2024-03-02T08:10:46;2.83;;;1.90;;
34296;SDS011;20564;42.902;25.336;2024-03-02T08:13:13;3.55;;;2.35;;
34296;SDS011;20564;42.902;25.336;2024-03-02T08:15:40;4.38;;;2.30;;
34296;SDS011;20564;42.902;25.336;2024-03-02T08:18:08;3.63;;;2.33;;
34296;SDS011;20564;42.902;25.336;2024-03-02T08:20:35;3.92;;;2.58;;
34296;SDS011;20564;42.902;25.336;2024-03-02T08:23:02;4.67;;;2.03;;
34296;SDS011;20564;42.902;25.336;2024-03-02T08:25:29;7.53;;;4.25;;
34296;SDS011;20564;42.902;25.336;2024-03-02T08:27:56;2.85;;;2.13;;
34296;SDS011;20564;42.902;25.336;2024-03-02T08:30:23;2.30;;;1.95;;
34296;SDS011;20564;42.902;25.336;2024-03-02T08:32:50;9.63;;;3.93;;
34296;SDS011;20564;42.902;25.336;2024-03-02T08:35:17;3.83;;;1.90;;
34296;SDS011;20564;42.902;25.336;2024-03-02T08:37:44;5.07;;;2.97;;
34296;SDS011;20564;42.902;25.336;2024-03-02T08:40:11;2.73;;;2.23;;
34296;SDS011;20564;42.902;25.336;2024-03-02T08:42:43;5.75;;;3.13;;
34296;SDS011;20564;42.902;25.336;2024-03-02T08:45:10;5.28;;;3.75;;
34296;SDS011;20564;42.902;25.336;2024-03-02T08:47:37;2.90;;;2.08;;
34296;SDS011;20564;42.902;25.336;2024-03-02T08:50:05;2.10;;;1.55;;
34296;SDS011;20564;42.902;25.336;2024-03-02T08:52:32;4.68;;;2.00;;
34296;SDS011;20564;42.902;25.336;2024-03-02T08:54:59;9.05;;;3.75;;
34296;SDS011;20564;42.902;25.336;2024-03-02T08:57:26;7.13;;;3.53;;
34296;SDS011;20564;42.902;25.336;2024-03-02T08:59:53;4.63;;;3.05;;
34296;SDS011;20564;42.902;25.336;2024-03-02T09:02:20;4.75;;;3.15;;
34296;SDS011;20564;42.902;25.336;2024-03-02T09:04:47;4.88;;;2.10;;
34296;SDS011;20564;42.902;25.336;2024-03-02T09:07:15;1.67;;;1.35;;
34296;SDS011;20564;42.902;25.336;2024-03-02T09:09:42;9.25;;;2.38;;
34296;SDS011;20564;42.902;25.336;2024-03-02T09:12:09;3.05;;;2.42;;
34296;SDS011;20564;42.902;25.336;2024-03-02T09:14:37;4.53;;;3.40;;
34296;SDS011;20564;42.902;25.336;2024-03-02T09:17:07;3.10;;;2.22;;
34296;SDS011;20564;42.902;25.336;2024-03-02T09:19:37;3.63;;;2.33;;
34296;SDS011;20564;42.902;25.336;2024-03-02T09:22:04;2.88;;;2.28;;
34296;SDS011;20564;42.902;25.336;2024-03-02T09:24:32;8.35;;;3.08;;
34296;SDS011;20564;42.902;25.336;2024-03-02T09:27:02;2.08;;;1.67;;
34296;SDS011;20564;42.902;25.336;2024-03-02T09:29:29;7.43;;;5.47;;
34296;SDS011;20564;42.902;25.336;2024-03-02T09:31:56;4.97;;;3.33;;
34296;SDS011;20564;42.902;25.336;2024-03-02T09:34:23;7.43;;;3.80;;
34296;SDS011;20564;42.902;25.336;2024-03-02T09:36:51;6.20;;;3.83;;
34296;SDS011;20564;42.902;25.336;2024-03-02T09:39:19;2.33;;;1.73;;
34296;SDS011;20564;42.902;25.336;2024-03-02T09:41:47;2.35;;;1.70;;
34296;SDS011;20564;42.902;25.336;2024-03-02T09:44:14;5.50;;;3.22;;
34296;SDS011;20564;42.902;25.336;2024-03-02T09:46:41;5.13;;;2.33;;
34296;SDS011;20564;42.902;25.336;2024-03-02T09:49:10;5.75;;;2.42;;
34296;SDS011;20564;42.902;25.336;2024-03-02T09:51:37;4.38;;;2.42;;
34296;SDS011;20564;42.902;25.336;2024-03-02T09:54:07;3.33;;;1.77;;
34296;SDS011;20564;42.902;25.336;2024-03-02T09:56:47;3.70;;;2.67;;
34296;SDS011;20564;42.902;25.336;2024-03-02T09:59:14;2.90;;;2.20;;
34296;SDS011;20564;42.902;25.336;2024-03-02T10:01:57;9.40;;;2.30;;
34296;SDS011;20564;42.902;25.336;2024-03-02T10:04:28;5.13;;;3.35;;
34296;SDS011;20564;42.902;25.336;2024-03-02T10:09:45;1.52;;;0.60;;
34296;SDS011;20564;42.902;25.336;2024-03-02T10:12:14;8.35;;;2.50;;
34296;SDS011;20564;42.902;25.336;2024-03-02T10:14:43;5.47;;;3.58;;
34296;SDS011;20564;42.902;25.336;2024-03-02T10:19:42;9.07;;;4.57;;
34296;SDS011;20564;42.902;25.336;2024-03-02T10:22:09;5.63;;;2.67;;
34296;SDS011;20564;42.902;25.336;2024-03-02T10:24:40;7.80;;;5.10;;
34296;SDS011;20564;42.902;25.336;2024-03-02T10:27:15;5.97;;;3.78;;
34296;SDS011;20564;42.902;25.336;2024-03-02T10:29:47;5.32;;;2.47;;
34296;SDS011;20564;42.902;25.336;2024-03-02T10:32:15;1.83;;;1.30;;
34296;SDS011;20564;42.902;25.336;2024-03-02T10:37:11;5.25;;;1.63;;
34296;SDS011;20564;42.902;25.336;2024-03-02T10:39:39;5.10;;;2.25;;
34296;SDS011;20564;42.902;25.336;2024-03-02T10:42:07;2.70;;;2.17;;
34296;SDS011;20564;42.902;25.336;2024-03-02T10:47:03;2.20;;;1.27;;
34296;SDS011;20564;42.902;25.336;2024-03-02T10:49:31;5.43;;;3.13;;
34296;SDS011;20564;42.902;25.336;2024-03-02T10:51:59;5.15;;;2.72;;
34296;SDS011;20564;42.902;25.336;2024-03-02T10:54:27;7.43;;;2.60;;
34296;SDS011;20564;42.902;25.336;2024-03-02T10:56:59;9.77;;;3.40;;
34296;SDS011;20564;42.902;25.336;2024-03-02T10:59:27;3.08;;;1.77;;
34296;SDS011;20564;42.902;25.336;2024-03-02T11:02:06;5.32;;;2.10;;
34296;SDS011;20564;42.902;25.336;2024-03-02T11:04:35;5.90;;;3.67;;
34296;SDS011;20564;42.902;25.336;2024-03-02T11:07:08;2.75;;;2.28;;
34296;SDS011;20564;42.902;25.336;2024-03-02T11:09:38;6.97;;;3.53;;
34296;SDS011;20564;42.902;25.336;2024-03-02T11:12:09;9.07;;;3.88;;
34296;SDS011;20564;42.902;25.336;2024-03-02T11:14:43;3.38;;;2.55;;
34296;SDS011;20564;42.902;25.336;2024-03-02T11:17:11;7.10;;;3.83;;
34296;SDS011;20564;42.902;25.336;2024-03-02T11:19:39;6.25;;;3.33;;
34296;SDS011;20564;42.902;25.336;2024-03-02T11:22:08;7.05;;;4.03;;
34296;SDS011;20564;42.902;25.336;2024-03-02T11:24:36;2.95;;;2.20;;
34296;SDS011;20564;42.902;25.336;2024-03-02T11:27:05;8.73;;;3.08;;
34296;SDS011;20564;42.902;25.336;2024-03-02T11:29:42;3.55;;;2.58;;
34296;SDS011;20564;42.902;25.336;2024-03-02T11:34:50;7.55;;;2.80;;
34296;SDS011;20564;42.902;25.336;2024-03-02T11:37:18;3.72;;;2.25;;
34296;SDS011;20564;42.902;25.336;2024-03-02T11:39:49;2.88;;;2.08;;
34296;SDS011;20564;42.902;25.336;2024-03-02T11:42:17;23.92;;;10.88;;
34296;SDS011;20564;42.902;25.336;2024-03-02T11:44:46;14.10;;;6.25;;
34296;SDS011;20564;42.902;25.336;2024-03-02T11:47:15;8.77;;;3.33;;
34296;SDS011;20564;42.902;25.336;2024-03-02T11:49:44;4.65;;;2.47;;
34296;SDS011;20564;42.902;25.336;2024-03-02T11:52:13;4.20;;;2.65;;
34296;SDS011;20564;42.902;25.336;2024-03-02T11:54:42;6.28;;;2.17;;
34296;SDS011;20564;42.902;25.336;2024-03-02T11:57:18;3.47;;;2.17;;
34296;SDS011;20564;42.902;25.336;2024-03-02T11:59:49;2.38;;;1.60;;
34296;SDS011;20564;42.902;25.336;2024-03-02T12:02:16;2.92;;;1.50;;
34296;SDS011;20564;42.902;25.336;2024-03-02T12:04:45;3.47;;;2.47;;
34296;SDS011;20564;42.902;25.336;2024-03-02T12:07:21;4.72;;;2.67;;
34296;SDS011;20564;42.902;25.336;2024-03-02T12:09:59;3.08;;;1.88;;
34296;SDS011;20564;42.902;25.336;2024-03-02T12:12:30;2.88;;;1.70;;
34296;SDS011;20564;42.902;25.336;2024-03-02T12:14:57;3.05;;;2.00;;
34296;SDS011;20564;42.902;25.336;2024-03-02T12:17:26;1.58;;;1.27;;
34296;SDS011;20564;42.902;25.336;2024-03-02T12:19:53;0.93;;;0.88;;
34296;SDS011;20564;42.902;25.336;2024-03-02T12:22:21;4.10;;;1.83;;
34296;SDS011;20564;42.902;25.336;2024-03-02T12:24:48;8.48;;;2.22;;
34296;SDS011;20564;42.902;25.336;2024-03-02T12:27:15;3.10;;;1.88;;
34296;SDS011;20564;42.902;25.336;2024-03-02T12:29:43;2.30;;;1.55;;
34296;SDS011;20564;42.902;25.336;2024-03-02T12:32:10;7.30;;;1.98;;
34296;SDS011;20564;42.902;25.336;2024-03-02T12:34:37;8.82;;;2.13;;
34296;SDS011;20564;42.902;25.336;2024-03-02T12:37:05;4.57;;;2.28;;
34296;SDS011;20564;42.902;25.336;2024-03-02T12:39:33;3.10;;;2.25;;
34296;SDS011;20564;42.902;25.336;2024-03-02T12:42:02;3.47;;;2.27;;
34296;SDS011;20564;42.902;25.336;2024-03-02T12:44:29;3.10;;;1.88;;
34296;SDS011;20564;42.902;25.336;2024-03-02T12:46:56;3.47;;;1.93;;
34296;SDS011;20564;42.902;25.336;2024-03-02T12:49:26;3.13;;;2.03;;
34296;SDS011;20564;42.902;25.336;2024-03-02T12:51:55;2.65;;;2.33;;
34296;SDS011;20564;42.902;25.336;2024-03-02T12:54:24;3.03;;;1.70;;
34296;SDS011;20564;42.902;25.336;2024-03-02T12:56:53;2.53;;;1.63;;
34296;SDS011;20564;42.902;25.336;2024-03-02T12:59:21;4.40;;;2.58;;
34296;SDS011;20564;42.902;25.336;2024-03-02T13:01:53;6.95;;;4.55;;
34296;SDS011;20564;42.902;25.336;2024-03-02T13:04:24;3.72;;;3.08;;
34296;SDS011;20564;42.902;25.336;2024-03-02T13:06:52;19.75;;;10.70;;
34296;SDS011;20564;42.902;25.336;2024-03-02T13:09:20;9.32;;;6.78;;
34296;SDS011;20564;42.902;25.336;2024-03-02T13:11:47;13.40;;;7.03;;
34296;SDS011;20564;42.902;25.336;2024-03-02T13:14:13;3.80;;;1.95;;
34296;SDS011;20564;42.902;25.336;2024-03-02T13:16:41;4.05;;;1.80;;
34296;SDS011;20564;42.902;25.336;2024-03-02T13:19:13;5.88;;;1.83;;
34296;SDS011;20564;42.902;25.336;2024-03-02T13:21:40;1.15;;;1.08;;
34296;SDS011;20564;42.902;25.336;2024-03-02T13:24:08;1.52;;;1.08;;
34296;SDS011;20564;42.902;25.336;2024-03-02T13:26:35;4.72;;;3.05;;
34296;SDS011;20564;42.902;25.336;2024-03-02T13:29:02;2.10;;;1.52;;
34296;SDS011;20564;42.902;25.336;2024-03-02T13:31:29;2.73;;;2.30;;
34296;SDS011;20564;42.902;25.336;2024-03-02T13:33:56;1.93;;;1.50;;
34296;SDS011;20564;42.902;25.336;2024-03-02T13:36:23;2.08;;;1.60;;
34296;SDS011;20564;42.902;25.336;2024-03-02T13:38:51;4.13;;;2.10;;
34296;SDS011;20564;42.902;25.336;2024-03-02T13:41:17;2.70;;;1.52;;
34296;SDS011;20564;42.902;25.336;2024-03-02T13:43:44;2.75;;;1.33;;
34296;SDS011;20564;42.902;25.336;2024-03-02T13:46:12;3.42;;;2.13;;
34296;SDS011;20564;42.902;25.336;2024-03-02T13:48:40;4.30;;;2.25;;
34296;SDS011;20564;42.902;25.336;2024-03-02T13:51:06;5.93;;;2.63;;
34296;SDS011;20564;42.902;25.336;2024-03-02T13:53:34;3.58;;;2.47;;
34296;SDS011;20564;42.902;25.336;2024-03-02T13:56:02;2.33;;;1.63;;
34296;SDS011;20564;42.902;25.336;2024-03-02T13:58:29;2.53;;;1.52;;
34296;SDS011;20564;42.902;25.336;2024-03-02T14:00:55;1.33;;;1.20;;
34296;SDS011;20564;42.902;25.336;2024-03-02T14:03:23;1.92;;;0.73;;
34296;SDS011;20564;42.902;25.336;2024-03-02T14:05:52;1.95;;;1.35;;
34296;SDS011;20564;42.902;25.336;2024-03-02T14:08:19;2.50;;;1.45;;
34296;SDS011;20564;42.902;25.336;2024-03-02T14:10:46;2.53;;;1.55;;
34296;SDS011;20564;42.902;25.336;2024-03-02T14:13:13;5.70;;;2.13;;
34296;SDS011;20564;42.902;25.336;2024-03-02T14:15:42;3.00;;;1.50;;
34296;SDS011;20564;42.902;25.336;2024-03-02T14:18:09;1.87;;;1.57;;
34296;SDS011;20564;42.902;25.336;2024-03-02T14:20:39;3.78;;;2.50;;
34296;SDS011;20564;42.902;25.336;2024-03-02T14:23:08;3.60;;;1.55;;
34296;SDS011;20564;42.902;25.336;2024-03-02T14:25:36;0.90;;;0.85;;
34296;SDS011;20564;42.902;25.336;2024-03-02T14:28:04;4.13;;;2.20;;
34296;SDS011;20564;42.902;25.336;2024-03-02T14:30:51;3.95;;;1.38;;
34296;SDS011;20564;42.902;25.336;2024-03-02T14:33:18;3.85;;;2.70;;
34296;SDS011;20564;42.902;25.336;2024-03-02T14:35:45;9.20;;;5.07;;
34296;SDS011;20564;42.902;25.336;2024-03-02T14:38:12;11.38;;;4.18;;
34296;SDS011;20564;42.902;25.336;2024-03-02T14:40:42;2.83;;;1.80;;
34296;SDS011;20564;42.902;25.336;2024-03-02T14:43:09;4.50;;;1.50;;
34296;SDS011;20564;42.902;25.336;2024-03-02T14:45:36;1.70;;;0.85;;
34296;SDS011;20564;42.902;25.336;2024-03-02T14:48:03;2.20;;;1.73;;
34296;SDS011;20564;42.902;25.336;2024-03-02T14:50:31;5.40;;;2.70;;
34296;SDS011;20564;42.902;25.336;2024-03-02T14:52:58;2.13;;;1.13;;
34296;SDS011;20564;42.902;25.336;2024-03-02T14:55:25;3.95;;;2.67;;
34296;SDS011;20564;42.902;25.336;2024-03-02T14:57:51;19.40;;;4.30;;
34296;SDS011;20564;42.902;25.336;2024-03-02T15:00:19;1.58;;;0.77;;
34296;SDS011;20564;42.902;25.336;2024-03-02T15:02:46;1.35;;;1.25;;
34296;SDS011;20564;42.902;25.336;2024-03-02T15:05:13;4.17;;;2.20;;
34296;SDS011;20564;42.902;25.336;2024-03-02T15:07:39;2.45;;;1.23;;
34296;SDS011;20564;42.902;25.336;2024-03-02T15:10:07;1.98;;;1.05;;
34296;SDS011;20564;42.902;25.336;2024-03-02T15:12:35;0.40;;;0.40;;
34296;SDS011;20564;42.902;25.336;2024-03-02T15:15:02;2.27;;;1.43;;
34296;SDS011;20564;42.902;25.336;2024-03-02T15:17:29;1.63;;;1.27;;